Current | Forecast
Updated: 6:24 PM JST on April 21, 2018
Observed at Okinawa, Japan
Temperature 72°F
Humidity 94%
Dew Point 70°F
Wind East at 18 mph
Pressure 30.01 in (Falling)
Conditions Overcast
Visibility 6.0 miles
UV 0 out of 16
Clouds Overcast (OVC) : 600 ft
Yesterday's Maximum 77°F
Yesterday's Minimum 64°F approx.
Yesterday's Cooling Degree Days 5 approx.
Sunrise6:00 AM JST
Sunset6:55 PM JST
Moon Rise10:18 AM JST
Moon Set
Moon PhaseMoon Phase
Waxing Crescent
Raw METARSPECI RODN 210924Z 09016KT 6SM BR OVC006 22/21 A2999 RMK AO2A DZE0856RAB0856E00 CIG 004V006 SLP162 $


Monday
. High: 80° F.
Tuesday
. High: 78° F.
Wednesday
. High: 77° F.
Thursday
. High: 78° F.
Friday
. High: 82° F.
Saturday
. High: 78° F.
Sunday
. High: 80° F.
Monday
. High: 78° F.

Units: English | Metric

Find the Weather for any City, State or Zipcode, or Country:

U.S. State List | Severe Weather | Tropical Storms | Ski Conditions
United States | Canada | Central America | South America | Asia | Europe | Australia | Africa | Islands

Weather Underground

© Copyright 2018
The Weather Company, LLC